createdAt,value
2023-04-27T00:00:18.037Z,99960.67
2023-04-27T00:03:24.514Z,99955.23
2023-04-27T00:06:30.078Z,99952.28
2023-04-27T00:09:35.911Z,99947.91
2023-04-27T00:12:41.464Z,99946.29
2023-04-27T00:15:47.653Z,99948.10
2023-04-27T00:18:54.210Z,99952.63
2023-04-27T00:22:00.686Z,99950.94
2023-04-27T00:25:07.275Z,99949.23
2023-04-27T00:28:13.337Z,99952.38
2023-04-27T00:31:19.642Z,99956.84
2023-04-27T00:34:25.105Z,99958.73
2023-04-27T00:37:31.264Z,99955.47
2023-04-27T00:40:36.246Z,99961.48
2023-04-27T00:43:41.434Z,99954.30
2023-04-27T00:46:47.070Z,99953.75
2023-04-27T00:49:52.980Z,99961.69
2023-04-27T00:52:58.920Z,99960.62
2023-04-27T00:56:05.188Z,99960.31
2023-04-27T00:59:11.897Z,99958.08
2023-04-27T01:02:17.839Z,99955.33
2023-04-27T01:05:24.420Z,99957.56
2023-04-27T01:08:29.599Z,99956.50
2023-04-27T01:11:34.802Z,99954.81
2023-04-27T01:14:39.627Z,99951.10
2023-04-27T01:17:44.727Z,99946.98
2023-04-27T01:20:51.421Z,99955.73
2023-04-27T01:23:58.341Z,99942.66
2023-04-27T01:27:04.370Z,99949.41
2023-04-27T01:30:11.042Z,99948.04
2023-04-27T01:33:16.598Z,99946.66
2023-04-27T01:36:22.806Z,99943.27
2023-04-27T01:39:27.896Z,99940.37
2023-04-27T01:42:32.659Z,99935.83
2023-04-27T01:45:40.126Z,99929.89
2023-04-27T01:48:45.482Z,99933.86
2023-04-27T01:51:50.854Z,99936.61
2023-04-27T01:54:56.188Z,99937.16
2023-04-27T01:58:03.049Z,99931.12
2023-04-27T02:01:08.282Z,99934.72
2023-04-27T02:04:14.228Z,99931.20
2023-04-27T02:07:14.116Z,99926.32
2023-04-27T02:10:22.086Z,99941.28
2023-04-27T02:13:27.862Z,99942.65
2023-04-27T02:16:34.073Z,99935.79
2023-04-27T02:19:33.638Z,99938.53
2023-04-27T02:22:40.003Z,99941.57
2023-04-27T02:25:45.784Z,99946.20
2023-04-27T02:28:52.143Z,99942.48
2023-04-27T02:31:58.368Z,99937.70
2023-04-27T02:35:05.311Z,99931.76
2023-04-27T02:38:11.654Z,99928.04
2023-04-27T02:41:17.012Z,99920.41
2023-04-27T02:44:25.070Z,99925.98
2023-04-27T02:47:32.194Z,99925.98
2023-04-27T02:50:38.241Z,99919.95
2023-04-27T02:53:43.632Z,99915.72
2023-04-27T02:56:49.033Z,99916.11
2023-04-27T02:59:54.481Z,99914.23
2023-04-27T03:03:00.655Z,99910.94
2023-04-27T03:06:06.852Z,99915.31
2023-04-27T03:09:13.267Z,99907.54
2023-04-27T03:12:21.183Z,99912.12
2023-04-27T03:15:27.561Z,99901.77
2023-04-27T03:18:33.897Z,99901.39
2023-04-27T03:21:39.766Z,99903.94
2023-04-27T03:24:47.794Z,99904.05
2023-04-27T03:27:54.579Z,99905.33
2023-04-27T03:31:00.922Z,99897.23
2023-04-27T03:34:06.793Z,99886.05
2023-04-27T03:37:13.685Z,99897.80
2023-04-27T03:40:19.310Z,99909.89
2023-04-27T03:43:25.475Z,99922.09
2023-04-27T03:46:32.739Z,99927.09
2023-04-27T03:49:38.116Z,99930.75
2023-04-27T03:52:44.872Z,99935.22
2023-04-27T03:55:57.618Z,99925.68
2023-04-27T03:59:02.434Z,99937.54
2023-04-27T04:02:13.805Z,99942.56
2023-04-27T04:05:21.551Z,99949.27
2023-04-27T04:08:28.333Z,99949.81
2023-04-27T04:11:34.957Z,99952.61
2023-04-27T04:14:42.012Z,99957.20
2023-04-27T04:17:48.202Z,99965.70
2023-04-27T04:20:54.114Z,99970.61
2023-04-27T04:24:01.950Z,99981.88
2023-04-27T04:27:10.140Z,99979.07
2023-04-27T04:30:15.360Z,99977.30
2023-04-27T04:33:20.521Z,99975.39
2023-04-27T04:36:26.332Z,99969.91
2023-04-27T04:39:33.713Z,99972.50
2023-04-27T04:42:41.166Z,99977.08
2023-04-27T04:45:46.240Z,99969.13
2023-04-27T04:48:45.498Z,99972.63
2023-04-27T04:51:38.945Z,99970.18
2023-04-27T04:54:44.208Z,99964.38
2023-04-27T04:57:50.816Z,99977.17
2023-04-27T05:00:55.876Z,99973.69
2023-04-27T05:04:02.059Z,99970.84
2023-04-27T05:07:08.778Z,99959.99
2023-04-27T05:10:15.877Z,99935.61
2023-04-27T05:13:21.949Z,99937.94
2023-04-27T05:16:26.977Z,99950.25
2023-04-27T05:19:34.409Z,99942.06
2023-04-27T05:22:40.327Z,99951.39
2023-04-27T05:25:48.572Z,99959.01
2023-04-27T05:28:57.661Z,99967.36
2023-04-27T05:32:04.456Z,99955.66
2023-04-27T05:35:12.135Z,99950.57
2023-04-27T05:38:17.745Z,99951.80
2023-04-27T05:41:22.991Z,99938.49
2023-04-27T05:44:31.245Z,99937.80
2023-04-27T05:47:38.039Z,99923.86
2023-04-27T05:50:44.110Z,99923.41
2023-04-27T05:53:49.849Z,99922.64
2023-04-27T05:56:55.428Z,99917.08
2023-04-27T06:00:00.836Z,99911.97
2023-04-27T06:03:07.984Z,99922.78
2023-04-27T06:06:15.008Z,99922.12
2023-04-27T06:09:20.919Z,99919.88
2023-04-27T06:12:26.835Z,99926.41
2023-04-27T06:15:34.911Z,99929.57
2023-04-27T06:18:40.342Z,99927.44
2023-04-27T06:21:50.442Z,99922.22
2023-04-27T06:24:57.314Z,99905.72
2023-04-27T06:28:04.432Z,99902.50
2023-04-27T06:31:10.519Z,99912.73
2023-04-27T06:34:15.728Z,99919.26
2023-04-27T06:37:25.476Z,99930.08
2023-04-27T06:40:32.545Z,99963.12
2023-04-27T06:43:40.043Z,100003.18
2023-04-27T06:46:46.143Z,100013.67
2023-04-27T06:49:53.858Z,99994.55
2023-04-27T06:53:00.302Z,99997.78
2023-04-27T06:56:06.344Z,100013.63
2023-04-27T06:59:12.272Z,100019.26
2023-04-27T07:02:17.926Z,100011.64
2023-04-27T07:05:24.995Z,100009.87
2023-04-27T07:08:32.603Z,99998.00
2023-04-27T07:11:38.825Z,99987.20
2023-04-27T07:14:44.137Z,99980.97
2023-04-27T07:17:50.121Z,99968.88
2023-04-27T07:20:58.235Z,99952.76
2023-04-27T07:24:05.150Z,99928.14
2023-04-27T07:27:10.491Z,99927.10
2023-04-27T07:30:17.013Z,99909.17
2023-04-27T07:33:22.958Z,99918.91
2023-04-27T07:36:29.408Z,99920.14
2023-04-27T07:39:35.526Z,99913.88
2023-04-27T07:42:42.790Z,99921.52
2023-04-27T07:45:48.920Z,99933.00
2023-04-27T07:48:57.471Z,99946.72
2023-04-27T07:52:04.623Z,99950.22
2023-04-27T07:55:09.927Z,99959.45
2023-04-27T07:58:19.011Z,99954.81
2023-04-27T08:01:25.011Z,99967.73
2023-04-27T08:04:31.766Z,99955.77
2023-04-27T08:07:44.127Z,99953.02
2023-04-27T08:10:46.545Z,99945.25
2023-04-27T08:13:52.277Z,99943.98
2023-04-27T08:16:58.861Z,99936.36
2023-04-27T08:20:05.820Z,99932.88
2023-04-27T08:23:14.522Z,99929.38
2023-04-27T08:26:20.972Z,99929.25
2023-04-27T08:29:28.825Z,99916.04
2023-04-27T08:32:36.417Z,99911.05
2023-04-27T08:35:43.083Z,99909.64
2023-04-27T08:38:51.349Z,99904.63
2023-04-27T08:42:01.189Z,99895.27
2023-04-27T08:45:05.941Z,99885.40
2023-04-27T08:48:11.216Z,99873.91
2023-04-27T08:51:18.778Z,99872.95
2023-04-27T08:54:25.968Z,99860.36
2023-04-27T08:57:34.283Z,99852.77
2023-04-27T09:00:42.491Z,99854.25
2023-04-27T09:03:53.040Z,99852.56
2023-04-27T09:06:58.976Z,99846.82
2023-04-27T09:10:05.038Z,99843.48
2023-04-27T09:13:14.283Z,99840.73
2023-04-27T09:16:21.304Z,99845.70
2023-04-27T09:19:31.018Z,99844.41
2023-04-27T09:22:36.504Z,99847.55
2023-04-27T09:25:45.760Z,99856.23
2023-04-27T09:28:57.534Z,99843.73
2023-04-27T09:32:03.248Z,99841.20
2023-04-27T09:35:10.499Z,99829.09
2023-04-27T09:38:17.074Z,99831.25
2023-04-27T09:41:24.786Z,99827.20
2023-04-27T09:44:31.158Z,99827.95
2023-04-27T09:47:38.184Z,99825.14
2023-04-27T09:50:44.721Z,99818.44
2023-04-27T09:54:05.299Z,99822.56
2023-04-27T09:57:22.698Z,99822.73
2023-04-27T10:01:00.981Z,99818.77
2023-04-27T10:04:32.609Z,99815.92
2023-04-27T10:07:40.230Z,99812.05
2023-04-27T10:10:49.965Z,99807.11
2023-04-27T10:14:08.118Z,99810.09
2023-04-27T10:17:14.893Z,99806.66
2023-04-27T10:20:24.087Z,99803.58
2023-04-27T10:23:41.366Z,99807.20
2023-04-27T10:26:45.933Z,99804.75
2023-04-27T10:29:57.161Z,99806.03
2023-04-27T10:33:14.291Z,99810.13
2023-04-27T10:36:21.163Z,99798.44
2023-04-27T10:39:46.883Z,99799.55
2023-04-27T10:42:43.674Z,99798.25
2023-04-27T10:45:49.141Z,99803.55
2023-04-27T10:49:00.516Z,99818.72
2023-04-27T10:52:06.345Z,99815.64
2023-04-27T10:55:13.582Z,99820.44
2023-04-27T10:58:18.868Z,99826.97
2023-04-27T11:01:28.709Z,99823.11
2023-04-27T11:04:39.598Z,99821.32
2023-04-27T11:08:01.306Z,99817.41
2023-04-27T11:11:08.453Z,99819.23
2023-04-27T11:14:17.280Z,99819.66
2023-04-27T11:17:23.308Z,99826.30
2023-04-27T11:20:33.414Z,99822.59
2023-04-27T11:23:48.704Z,99811.65
2023-04-27T11:26:55.119Z,99807.12
2023-04-27T11:30:01.861Z,99812.80
2023-04-27T11:33:09.841Z,99802.22
2023-04-27T11:36:15.928Z,99800.64
2023-04-27T11:39:22.147Z,99802.91
2023-04-27T11:42:37.992Z,99800.32
2023-04-27T11:45:45.766Z,99801.25
2023-04-27T11:48:53.799Z,99795.27
2023-04-27T11:52:00.688Z,99786.92
2023-04-27T11:55:07.790Z,99783.72
2023-04-27T11:58:15.062Z,99776.05
2023-04-27T12:01:36.957Z,99764.34
2023-04-27T12:04:37.598Z,99761.25
2023-04-27T12:07:42.833Z,99763.38
2023-04-27T12:10:48.078Z,99761.72
2023-04-27T12:13:56.299Z,99756.98
2023-04-27T12:17:02.651Z,99748.84
2023-04-27T12:20:09.468Z,99754.42
2023-04-27T12:23:16.542Z,99741.87
2023-04-27T12:26:21.502Z,99736.16
2023-04-27T12:29:29.068Z,99733.19
2023-04-27T12:32:35.302Z,99725.74
2023-04-27T12:35:42.235Z,99728.26
2023-04-27T12:38:49.394Z,99718.77
2023-04-27T12:41:57.569Z,99715.11
2023-04-27T12:45:05.685Z,99709.23
2023-04-27T12:48:11.648Z,99716.72
2023-04-27T12:51:20.423Z,99711.95
2023-04-27T12:54:27.258Z,99711.98
2023-04-27T12:57:33.738Z,99716.11
2023-04-27T13:00:40.529Z,99731.16
2023-04-27T13:03:45.746Z,99731.73
2023-04-27T13:06:53.818Z,99738.44
2023-04-27T13:10:00.016Z,99743.48
2023-04-27T13:13:06.626Z,99740.63
2023-04-27T13:16:12.567Z,99743.50
2023-04-27T13:19:18.784Z,99743.91
2023-04-27T13:22:24.151Z,99745.97
2023-04-27T13:25:30.140Z,99754.38
2023-04-27T13:28:35.844Z,99757.00
2023-04-27T13:31:41.038Z,99757.90
2023-04-27T13:35:04.326Z,99766.70
2023-04-27T13:38:10.341Z,99764.03
2023-04-27T13:41:16.357Z,99774.97
2023-04-27T13:44:23.411Z,99774.73
2023-04-27T13:47:29.542Z,99777.03
2023-04-27T13:50:36.329Z,99780.34
2023-04-27T13:53:43.121Z,99767.89
2023-04-27T13:56:49.366Z,99768.16
2023-04-27T13:59:57.661Z,99759.87
2023-04-27T14:03:05.525Z,99765.80
2023-04-27T14:06:12.122Z,99749.70
2023-04-27T14:09:18.642Z,99745.28
2023-04-27T14:12:24.903Z,99739.42
2023-04-27T14:15:31.920Z,99729.36
2023-04-27T14:18:37.013Z,99729.52
2023-04-27T14:21:42.900Z,99732.78
2023-04-27T14:24:49.112Z,99743.66
2023-04-27T14:27:56.198Z,99754.70
2023-04-27T14:31:02.665Z,99761.73
2023-04-27T14:34:08.717Z,99768.66
2023-04-27T14:37:14.693Z,99770.20
2023-04-27T14:40:22.372Z,99770.75
2023-04-27T14:43:29.350Z,99771.02
2023-04-27T14:46:35.629Z,99774.75
2023-04-27T14:49:42.677Z,99776.27
2023-04-27T14:52:49.525Z,99779.37
2023-04-27T14:55:55.815Z,99774.48
2023-04-27T14:59:02.009Z,99777.69
2023-04-27T15:02:07.600Z,99771.84
2023-04-27T15:05:13.917Z,99770.45
2023-04-27T15:08:20.345Z,99778.98
2023-04-27T15:11:20.160Z,99779.77
2023-04-27T15:14:08.541Z,99791.83
2023-04-27T15:17:02.637Z,99785.27
2023-04-27T15:20:03.791Z,99792.58
2023-04-27T15:23:10.141Z,99793.77
2023-04-27T15:26:15.301Z,99799.09
2023-04-27T15:29:22.013Z,99803.89
2023-04-27T15:32:30.228Z,99807.56
2023-04-27T15:35:35.521Z,99820.53
2023-04-27T15:38:43.221Z,99836.80
2023-04-27T15:41:48.662Z,99837.42
2023-04-27T15:44:54.535Z,99841.60
2023-04-27T15:48:00.620Z,99846.71
2023-04-27T15:51:08.873Z,99844.23
2023-04-27T15:54:15.132Z,99858.71
2023-04-27T15:57:20.924Z,99856.80
2023-04-27T16:00:29.489Z,99871.64
2023-04-27T16:03:37.125Z,99864.02
2023-04-27T16:06:48.244Z,99859.33
2023-04-27T16:09:54.478Z,99868.99
2023-04-27T16:13:01.317Z,99867.51
2023-04-27T16:16:07.285Z,99866.34
2023-04-27T16:19:14.303Z,99864.86
2023-04-27T16:22:22.624Z,99871.64
2023-04-27T16:25:28.156Z,99873.53
2023-04-27T16:28:35.559Z,99875.33
2023-04-27T16:31:40.630Z,99882.53
2023-04-27T16:34:46.300Z,99893.68
2023-04-27T16:37:52.567Z,99907.16
2023-04-27T16:41:01.368Z,99912.60
2023-04-27T16:44:07.268Z,99913.16
2023-04-27T16:47:13.312Z,99921.45
2023-04-27T16:50:18.653Z,99920.95
2023-04-27T16:53:26.830Z,99924.05
2023-04-27T16:56:43.336Z,99914.30
2023-04-27T16:59:49.095Z,99930.23
2023-04-27T17:02:54.800Z,99928.30
2023-04-27T17:06:03.901Z,99933.20
2023-04-27T17:09:13.810Z,99950.91
2023-04-27T17:12:22.253Z,99942.42
2023-04-27T17:15:28.329Z,99958.73
2023-04-27T17:18:37.536Z,99952.19
2023-04-27T17:21:44.754Z,99963.51
2023-04-27T17:24:50.765Z,99963.29
2023-04-27T17:27:55.882Z,99973.69
2023-04-27T17:31:02.138Z,99974.94
2023-04-27T17:34:07.007Z,99981.73
2023-04-27T17:37:13.726Z,99990.64
2023-04-27T17:40:20.323Z,99993.70
2023-04-27T17:43:27.663Z,99989.36
2023-04-27T17:46:33.920Z,99996.24
2023-04-27T17:49:40.836Z,100000.89
2023-04-27T17:52:48.139Z,99996.16
2023-04-27T17:55:58.188Z,99997.61
2023-04-27T17:59:03.987Z,99997.73
2023-04-27T18:02:10.538Z,100003.00
2023-04-27T18:05:15.920Z,99999.81
2023-04-27T18:08:22.505Z,100012.08
2023-04-27T18:11:29.395Z,100022.44
2023-04-27T18:14:36.556Z,100024.75
2023-04-27T18:17:42.684Z,100030.37
2023-04-27T18:20:51.402Z,100014.78
2023-04-27T18:23:57.891Z,100022.19
2023-04-27T18:27:04.483Z,100028.11
2023-04-27T18:30:11.225Z,100025.56
2023-04-27T18:33:16.657Z,100029.04
2023-04-27T18:36:22.943Z,100032.14
2023-04-27T18:39:29.052Z,100025.98
2023-04-27T18:42:35.615Z,100036.98
2023-04-27T18:45:42.054Z,100033.06
2023-04-27T18:48:48.815Z,100025.33
2023-04-27T18:51:55.002Z,100031.05
2023-04-27T18:55:02.378Z,100034.66
2023-04-27T18:58:08.653Z,100028.80
2023-04-27T19:01:14.430Z,100027.13
2023-04-27T19:04:21.363Z,100032.11
2023-04-27T19:07:31.554Z,100022.76
2023-04-27T19:10:38.342Z,100024.55
2023-04-27T19:13:44.567Z,100017.44
2023-04-27T19:16:50.371Z,100012.55
2023-04-27T19:19:57.943Z,100015.06
2023-04-27T19:23:04.702Z,100011.45
2023-04-27T19:26:13.634Z,100022.53
2023-04-27T19:29:19.403Z,100015.30
2023-04-27T19:32:26.468Z,100018.98
2023-04-27T19:35:34.225Z,100018.53
2023-04-27T19:38:40.775Z,100012.41
2023-04-27T19:41:48.192Z,100008.80
2023-04-27T19:44:54.590Z,100014.20
2023-04-27T19:48:01.493Z,100034.57
2023-04-27T19:51:08.738Z,100025.42
2023-04-27T19:54:16.896Z,100019.87
2023-04-27T19:57:23.977Z,100033.37
2023-04-27T20:00:31.798Z,100044.57
2023-04-27T20:03:37.985Z,100049.03
2023-04-27T20:06:45.614Z,100044.91
2023-04-27T20:09:52.920Z,100058.45
2023-04-27T20:12:58.844Z,100056.88
2023-04-27T20:16:05.555Z,100059.73
2023-04-27T20:19:13.230Z,100064.06
2023-04-27T20:22:20.049Z,100070.63
2023-04-27T20:25:27.536Z,100076.32
2023-04-27T20:28:34.032Z,100074.29
2023-04-27T20:31:40.609Z,100072.80
2023-04-27T20:34:47.092Z,100084.52
2023-04-27T20:37:54.281Z,100087.27
2023-04-27T20:41:00.599Z,100080.25
2023-04-27T20:44:10.073Z,100082.99
2023-04-27T20:47:14.941Z,100084.91
2023-04-27T20:50:22.295Z,100071.58
2023-04-27T20:53:28.248Z,100075.24
2023-04-27T20:56:34.326Z,100082.31
2023-04-27T20:59:32.592Z,100086.48
2023-04-27T21:02:25.922Z,100085.83
2023-04-27T21:05:32.427Z,100084.97
2023-04-27T21:08:37.760Z,100087.91
2023-04-27T21:11:43.871Z,100079.41
2023-04-27T21:14:51.270Z,100095.23
2023-04-27T21:17:58.973Z,100103.48
2023-04-27T21:21:06.859Z,100108.66
2023-04-27T21:24:12.744Z,100105.39
2023-04-27T21:27:20.725Z,100112.58
2023-04-27T21:30:27.255Z,100107.59
2023-04-27T21:33:33.268Z,100100.30
2023-04-27T21:36:41.538Z,100104.27
2023-04-27T21:39:48.046Z,100100.16
2023-04-27T21:42:54.604Z,100109.97
2023-04-27T21:45:59.469Z,100098.52
2023-04-27T21:49:05.525Z,100105.27
2023-04-27T21:52:10.789Z,100101.34
2023-04-27T21:55:15.843Z,100105.47
2023-04-27T21:58:21.681Z,100111.27
2023-04-27T22:01:28.129Z,100109.07
2023-04-27T22:04:33.615Z,100108.88
2023-04-27T22:07:38.956Z,100111.22
2023-04-27T22:10:44.018Z,100106.05
2023-04-27T22:13:50.940Z,100108.28
2023-04-27T22:16:57.098Z,100103.41
2023-04-27T22:20:02.976Z,100098.66
2023-04-27T22:23:08.728Z,100096.11
2023-04-27T22:26:14.432Z,100099.58
2023-04-27T22:29:21.325Z,100096.52
2023-04-27T22:32:27.611Z,100087.81
2023-04-27T22:35:32.925Z,100100.56
2023-04-27T22:38:39.953Z,100104.88
2023-04-27T22:41:46.025Z,100103.16
2023-04-27T22:44:53.180Z,100098.73
2023-04-27T22:47:59.645Z,100098.06
2023-04-27T22:51:05.150Z,100100.81
2023-04-27T22:54:11.314Z,100098.27
2023-04-27T22:57:15.813Z,100105.33
2023-04-27T23:00:22.366Z,100104.61
2023-04-27T23:03:27.666Z,100105.13
2023-04-27T23:06:35.053Z,100102.27
2023-04-27T23:09:43.107Z,100112.19
2023-04-27T23:12:48.439Z,100108.38
2023-04-27T23:15:54.769Z,100113.88
2023-04-27T23:19:00.351Z,100111.87
2023-04-27T23:22:05.823Z,100108.47
2023-04-27T23:25:11.367Z,100115.33
2023-04-27T23:28:17.379Z,100107.80
2023-04-27T23:31:24.123Z,100106.82
2023-04-27T23:34:30.570Z,100099.64
2023-04-27T23:37:36.596Z,100097.92
2023-04-27T23:40:43.097Z,100100.86
2023-04-27T23:43:50.066Z,100106.95
2023-04-27T23:46:56.291Z,100107.53
2023-04-27T23:50:02.117Z,100108.44
2023-04-27T23:53:09.070Z,100102.04
2023-04-27T23:56:15.888Z,100104.83
2023-04-27T23:59:22.192Z,100102.86
